sensor_id;sensor_type;location;lat;lon;timestamp;pressure;altitude;pressure_sealevel;temperature;humidity
68594;BME280;55563;52.416;13.548;2023-03-22T00:00:45;100825.19;;;9.36;100.00
68594;BME280;55563;52.416;13.548;2023-03-22T00:02:46;100828.59;;;9.37;100.00
68594;BME280;55563;52.416;13.548;2023-03-22T00:04:47;100817.38;;;9.41;100.00
68594;BME280;55563;52.416;13.548;2023-03-22T00:06:48;100833.59;;;9.38;100.00
68594;BME280;55563;52.416;13.548;2023-03-22T00:08:50;100816.94;;;9.28;100.00
68594;BME280;55563;52.416;13.548;2023-03-22T00:10:51;100821.59;;;9.21;100.00
68594;BME280;55563;52.416;13.548;2023-03-22T00:12:52;100819.00;;;9.26;100.00
68594;BME280;55563;52.416;13.548;2023-03-22T00:14:53;100820.59;;;9.27;100.00
68594;BME280;55563;52.416;13.548;2023-03-22T00:16:54;100825.84;;;9.27;100.00
68594;BME280;55563;52.416;13.548;2023-03-22T00:18:56;100815.13;;;9.28;100.00
68594;BME280;55563;52.416;13.548;2023-03-22T00:20:57;100810.56;;;9.18;100.00
68594;BME280;55563;52.416;13.548;2023-03-22T00:22:59;100808.66;;;9.14;100.00
68594;BME280;55563;52.416;13.548;2023-03-22T00:25:00;100809.47;;;9.14;100.00
68594;BME280;55563;52.416;13.548;2023-03-22T00:27:00;100810.66;;;9.07;100.00
68594;BME280;55563;52.416;13.548;2023-03-22T00:29:01;100810.44;;;9.08;100.00
68594;BME280;55563;52.416;13.548;2023-03-22T00:31:02;100811.16;;;9.04;100.00
68594;BME280;55563;52.416;13.548;2023-03-22T00:33:04;100808.38;;;9.10;100.00
68594;BME280;55563;52.416;13.548;2023-03-22T00:35:05;100809.47;;;9.14;100.00
68594;BME280;55563;52.416;13.548;2023-03-22T00:37:06;100806.28;;;9.12;100.00
68594;BME280;55563;52.416;13.548;2023-03-22T00:39:07;100806.28;;;9.12;100.00
68594;BME280;55563;52.416;13.548;2023-03-22T00:41:11;100807.06;;;9.13;100.00
68594;BME280;55563;52.416;13.548;2023-03-22T00:43:13;100801.78;;;9.08;100.00
68594;BME280;55563;52.416;13.548;2023-03-22T00:45:13;100805.25;;;9.13;100.00
68594;BME280;55563;52.416;13.548;2023-03-22T00:47:14;100790.91;;;8.99;100.00
68594;BME280;55563;52.416;13.548;2023-03-22T00:49:15;100794.63;;;9.03;100.00
68594;BME280;55563;52.416;13.548;2023-03-22T00:51:16;100795.44;;;9.04;100.00
68594;BME280;55563;52.416;13.548;2023-03-22T00:53:17;100805.34;;;9.02;100.00
68594;BME280;55563;52.416;13.548;2023-03-22T00:55:18;100796.97;;;9.00;100.00
68594;BME280;55563;52.416;13.548;2023-03-22T00:57:19;100792.97;;;8.97;100.00
68594;BME280;55563;52.416;13.548;2023-03-22T00:59:20;100795.06;;;8.95;100.00
68594;BME280;55563;52.416;13.548;2023-03-22T01:01:21;100792.75;;;8.99;100.00
68594;BME280;55563;52.416;13.548;2023-03-22T01:03:22;100786.97;;;8.97;100.00
68594;BME280;55563;52.416;13.548;2023-03-22T01:05:24;100790.06;;;8.94;100.00
68594;BME280;55563;52.416;13.548;2023-03-22T01:07:26;100792.69;;;8.94;100.00
68594;BME280;55563;52.416;13.548;2023-03-22T01:09:29;100799.03;;;8.98;100.00
68594;BME280;55563;52.416;13.548;2023-03-22T01:11:33;100804.75;;;8.95;100.00
68594;BME280;55563;52.416;13.548;2023-03-22T01:13:34;100807.16;;;8.96;100.00
68594;BME280;55563;52.416;13.548;2023-03-22T01:15:37;100799.41;;;9.06;100.00
68594;BME280;55563;52.416;13.548;2023-03-22T01:17:38;100802.56;;;9.08;100.00
68594;BME280;55563;52.416;13.548;2023-03-22T01:19:38;100798.78;;;8.99;100.00
68594;BME280;55563;52.416;13.548;2023-03-22T01:21:40;100787.75;;;8.97;100.00
68594;BME280;55563;52.416;13.548;2023-03-22T01:23:41;100789.59;;;8.97;100.00
68594;BME280;55563;52.416;13.548;2023-03-22T01:25:42;100778.53;;;8.95;100.00
68594;BME280;55563;52.416;13.548;2023-03-22T01:27:43;100795.59;;;8.97;100.00
68594;BME280;55563;52.416;13.548;2023-03-22T01:29:44;100791.78;;;9.05;100.00
68594;BME280;55563;52.416;13.548;2023-03-22T01:31:45;100777.06;;;9.04;100.00
68594;BME280;55563;52.416;13.548;2023-03-22T01:33:46;100783.91;;;9.05;100.00
68594;BME280;55563;52.416;13.548;2023-03-22T01:35:47;100778.91;;;9.03;100.00
68594;BME280;55563;52.416;13.548;2023-03-22T01:37:48;100776.16;;;8.93;100.00
68594;BME280;55563;52.416;13.548;2023-03-22T01:39:50;100769.09;;;8.94;100.00
68594;BME280;55563;52.416;13.548;2023-03-22T01:41:52;100770.44;;;8.96;100.00
68594;BME280;55563;52.416;13.548;2023-03-22T01:44:15;100768.34;;;8.98;100.00
68594;BME280;55563;52.416;13.548;2023-03-22T01:46:17;100768.63;;;8.97;100.00
68594;BME280;55563;52.416;13.548;2023-03-22T01:48:23;100767.25;;;8.94;100.00
68594;BME280;55563;52.416;13.548;2023-03-22T01:50:26;100765.44;;;8.95;100.00
68594;BME280;55563;52.416;13.548;2023-03-22T01:52:28;100755.50;;;8.97;100.00
68594;BME280;55563;52.416;13.548;2023-03-22T01:54:41;100758.81;;;8.87;100.00
68594;BME280;55563;52.416;13.548;2023-03-22T01:57:03;100759.91;;;8.91;100.00
68594;BME280;55563;52.416;13.548;2023-03-22T01:59:12;100759.56;;;8.88;100.00
68594;BME280;55563;52.416;13.548;2023-03-22T02:01:33;100755.63;;;8.85;100.00
68594;BME280;55563;52.416;13.548;2023-03-22T02:03:49;100745.88;;;8.81;100.00
68594;BME280;55563;52.416;13.548;2023-03-22T02:05:53;100750.38;;;8.85;100.00
68594;BME280;55563;52.416;13.548;2023-03-22T02:07:56;100744.56;;;8.83;100.00
68594;BME280;55563;52.416;13.548;2023-03-22T02:09:58;100743.00;;;8.82;100.00
68594;BME280;55563;52.416;13.548;2023-03-22T02:21:46;100734.09;;;8.83;100.00
68594;BME280;55563;52.416;13.548;2023-03-22T02:24:25;100725.81;;;8.69;100.00
68594;BME280;55563;52.416;13.548;2023-03-22T02:29:17;100735.81;;;8.72;100.00
68594;BME280;55563;52.416;13.548;2023-03-22T02:31:45;100732.63;;;8.70;100.00
68594;BME280;55563;52.416;13.548;2023-03-22T02:33:58;100730.97;;;8.64;100.00
68594;BME280;55563;52.416;13.548;2023-03-22T02:39:07;100739.50;;;8.55;100.00
68594;BME280;55563;52.416;13.548;2023-03-22T02:45:35;100733.97;;;8.51;100.00
68594;BME280;55563;52.416;13.548;2023-03-22T02:47:45;100732.88;;;8.47;100.00
68594;BME280;55563;52.416;13.548;2023-03-22T02:49:55;100727.13;;;8.50;100.00
68594;BME280;55563;52.416;13.548;2023-03-22T02:52:01;100726.59;;;8.48;100.00
68594;BME280;55563;52.416;13.548;2023-03-22T02:54:10;100725.25;;;8.46;100.00
68594;BME280;55563;52.416;13.548;2023-03-22T02:56:21;100721.75;;;8.40;100.00
68594;BME280;55563;52.416;13.548;2023-03-22T02:58:27;100725.16;;;8.41;100.00
68594;BME280;55563;52.416;13.548;2023-03-22T03:00:30;100727.47;;;8.37;100.00
68594;BME280;55563;52.416;13.548;2023-03-22T03:02:33;100720.00;;;8.29;100.00
68594;BME280;55563;52.416;13.548;2023-03-22T03:04:38;100715.50;;;8.24;100.00
68594;BME280;55563;52.416;13.548;2023-03-22T03:06:43;100719.44;;;8.27;100.00
68594;BME280;55563;52.416;13.548;2023-03-22T03:08:47;100720.41;;;8.21;100.00
68594;BME280;55563;52.416;13.548;2023-03-22T03:10:53;100715.88;;;8.16;100.00
68594;BME280;55563;52.416;13.548;2023-03-22T03:13:17;100713.75;;;8.13;100.00
68594;BME280;55563;52.416;13.548;2023-03-22T03:15:20;100716.88;;;8.10;100.00
68594;BME280;55563;52.416;13.548;2023-03-22T03:20:27;100724.50;;;7.95;100.00
68594;BME280;55563;52.416;13.548;2023-03-22T03:25:37;100716.47;;;7.85;100.00
68594;BME280;55563;52.416;13.548;2023-03-22T03:27:49;100719.81;;;7.80;100.00
68594;BME280;55563;52.416;13.548;2023-03-22T03:30:00;100713.94;;;7.90;100.00
68594;BME280;55563;52.416;13.548;2023-03-22T03:32:09;100717.19;;;7.80;100.00
68594;BME280;55563;52.416;13.548;2023-03-22T03:34:19;100717.66;;;7.77;100.00
68594;BME280;55563;52.416;13.548;2023-03-22T03:36:22;100726.22;;;7.73;100.00
68594;BME280;55563;52.416;13.548;2023-03-22T03:38:27;100730.28;;;7.80;100.00
68594;BME280;55563;52.416;13.548;2023-03-22T03:40:34;100731.78;;;7.76;100.00
68594;BME280;55563;52.416;13.548;2023-03-22T03:42:44;100729.13;;;7.60;100.00
68594;BME280;55563;52.416;13.548;2023-03-22T03:44:47;100728.44;;;7.64;100.00
68594;BME280;55563;52.416;13.548;2023-03-22T03:46:49;100729.31;;;7.70;100.00
68594;BME280;55563;52.416;13.548;2023-03-22T03:48:55;100728.34;;;7.59;100.00
68594;BME280;55563;52.416;13.548;2023-03-22T03:50:58;100730.06;;;7.54;100.00
68594;BME280;55563;52.416;13.548;2023-03-22T03:52:59;100729.28;;;7.53;100.00
68594;BME280;55563;52.416;13.548;2023-03-22T03:55:01;100725.81;;;7.48;100.00
68594;BME280;55563;52.416;13.548;2023-03-22T03:57:06;100728.16;;;7.49;100.00
68594;BME280;55563;52.416;13.548;2023-03-22T03:59:07;100726.03;;;7.46;100.00
68594;BME280;55563;52.416;13.548;2023-03-22T04:01:08;100729.13;;;7.43;100.00
68594;BME280;55563;52.416;13.548;2023-03-22T04:03:21;100729.47;;;7.35;100.00
68594;BME280;55563;52.416;13.548;2023-03-22T04:05:42;100722.13;;;7.32;100.00
68594;BME280;55563;52.416;13.548;2023-03-22T04:07:43;100722.81;;;7.27;100.00
68594;BME280;55563;52.416;13.548;2023-03-22T04:09:44;100724.97;;;7.30;100.00
68594;BME280;55563;52.416;13.548;2023-03-22T04:11:51;100723.13;;;7.31;100.00
68594;BME280;55563;52.416;13.548;2023-03-22T04:13:51;100727.03;;;7.28;100.00
68594;BME280;55563;52.416;13.548;2023-03-22T04:15:55;100723.03;;;7.26;100.00
68594;BME280;55563;52.416;13.548;2023-03-22T04:17:58;100723.28;;;7.24;100.00
68594;BME280;55563;52.416;13.548;2023-03-22T04:20:01;100727.03;;;7.28;100.00
68594;BME280;55563;52.416;13.548;2023-03-22T04:22:04;100719.97;;;7.29;100.00
68594;BME280;55563;52.416;13.548;2023-03-22T04:24:07;100725.28;;;7.34;100.00
68594;BME280;55563;52.416;13.548;2023-03-22T04:26:12;100725.38;;;7.39;100.00
68594;BME280;55563;52.416;13.548;2023-03-22T04:28:25;100733.88;;;7.46;100.00
68594;BME280;55563;52.416;13.548;2023-03-22T04:30:26;100728.50;;;7.53;100.00
68594;BME280;55563;52.416;13.548;2023-03-22T04:32:48;100724.03;;;7.53;100.00
68594;BME280;55563;52.416;13.548;2023-03-22T04:34:52;100734.06;;;7.56;100.00
68594;BME280;55563;52.416;13.548;2023-03-22T04:36:54;100734.38;;;7.60;100.00
68594;BME280;55563;52.416;13.548;2023-03-22T04:39:03;100725.81;;;7.48;100.00
68594;BME280;55563;52.416;13.548;2023-03-22T04:41:05;100726.34;;;7.50;100.00
68594;BME280;55563;52.416;13.548;2023-03-22T04:43:11;100726.59;;;7.48;100.00
68594;BME280;55563;52.416;13.548;2023-03-22T04:45:24;100731.56;;;7.50;100.00
68594;BME280;55563;52.416;13.548;2023-03-22T04:47:31;100728.50;;;7.53;100.00
68594;BME280;55563;52.416;13.548;2023-03-22T04:49:33;100724.84;;;7.54;100.00
68594;BME280;55563;52.416;13.548;2023-03-22T04:51:33;100721.81;;;7.45;100.00
68594;BME280;55563;52.416;13.548;2023-03-22T04:53:48;100722.84;;;7.44;100.00
68594;BME280;55563;52.416;13.548;2023-03-22T04:55:49;100716.91;;;7.49;100.00
68594;BME280;55563;52.416;13.548;2023-03-22T04:57:50;100723.50;;;7.51;100.00
68594;BME280;55563;52.416;13.548;2023-03-22T04:59:56;100720.31;;;7.49;100.00
68594;BME280;55563;52.416;13.548;2023-03-22T05:01:58;100712.25;;;7.51;100.00
68594;BME280;55563;52.416;13.548;2023-03-22T05:04:04;100711.69;;;7.49;100.00
68594;BME280;55563;52.416;13.548;2023-03-22T05:06:07;100707.59;;;7.53;100.00
68594;BME280;55563;52.416;13.548;2023-03-22T05:08:22;100700.19;;;7.50;100.00
68594;BME280;55563;52.416;13.548;2023-03-22T05:10:25;100699.81;;;7.58;100.00
68594;BME280;55563;52.416;13.548;2023-03-22T05:12:27;100699.88;;;7.63;100.00
68594;BME280;55563;52.416;13.548;2023-03-22T05:14:33;100694.34;;;7.59;100.00
68594;BME280;55563;52.416;13.548;2023-03-22T05:16:35;100698.63;;;7.65;100.00
68594;BME280;55563;52.416;13.548;2023-03-22T05:18:36;100694.59;;;7.74;100.00
68594;BME280;55563;52.416;13.548;2023-03-22T05:20:42;100680.88;;;7.67;100.00
68594;BME280;55563;52.416;13.548;2023-03-22T05:22:45;100693.09;;;7.62;100.00
68594;BME280;55563;52.416;13.548;2023-03-22T05:24:50;100690.69;;;7.60;100.00
68594;BME280;55563;52.416;13.548;2023-03-22T05:26:56;100685.06;;;7.52;100.00
68594;BME280;55563;52.416;13.548;2023-03-22T05:29:00;100686.97;;;7.56;100.00
68594;BME280;55563;52.416;13.548;2023-03-22T05:31:12;100689.59;;;7.56;100.00
68594;BME280;55563;52.416;13.548;2023-03-22T05:33:27;100685.69;;;7.59;100.00
68594;BME280;55563;52.416;13.548;2023-03-22T05:35:32;100690.13;;;7.58;100.00
68594;BME280;55563;52.416;13.548;2023-03-22T05:37:35;100680.94;;;7.56;100.00
68594;BME280;55563;52.416;13.548;2023-03-22T05:39:37;100688.00;;;7.55;100.00
68594;BME280;55563;52.416;13.548;2023-03-22T05:41:38;100685.38;;;7.55;100.00
68594;BME280;55563;52.416;13.548;2023-03-22T05:43:39;100686.25;;;7.61;100.00
68594;BME280;55563;52.416;13.548;2023-03-22T05:45:40;100687.84;;;7.62;100.00
68594;BME280;55563;52.416;13.548;2023-03-22T05:47:52;100681.81;;;7.61;100.00
68594;BME280;55563;52.416;13.548;2023-03-22T05:49:55;100689.69;;;7.61;100.00
68594;BME280;55563;52.416;13.548;2023-03-22T05:51:58;100681.34;;;7.64;100.00
68594;BME280;55563;52.416;13.548;2023-03-22T05:54:08;100687.59;;;7.63;100.00
68594;BME280;55563;52.416;13.548;2023-03-22T05:56:16;100686.25;;;7.61;100.00
68594;BME280;55563;52.416;13.548;2023-03-22T05:58:19;100683.16;;;7.64;100.00
68594;BME280;55563;52.416;13.548;2023-03-22T06:00:23;100677.00;;;7.70;100.00
68594;BME280;55563;52.416;13.548;2023-03-22T06:02:47;100681.44;;;7.69;100.00
68594;BME280;55563;52.416;13.548;2023-03-22T06:04:49;100677.56;;;7.72;100.00
68594;BME280;55563;52.416;13.548;2023-03-22T06:06:51;100679.69;;;7.75;100.00
68594;BME280;55563;52.416;13.548;2023-03-22T06:09:13;100673.97;;;7.78;100.00
68594;BME280;55563;52.416;13.548;2023-03-22T06:11:14;100672.94;;;7.79;100.00
68594;BME280;55563;52.416;13.548;2023-03-22T06:13:16;100674.53;;;7.80;100.00
68594;BME280;55563;52.416;13.548;2023-03-22T06:15:18;100675.41;;;7.85;100.00
68594;BME280;55563;52.416;13.548;2023-03-22T06:17:30;100666.75;;;7.85;100.00
68594;BME280;55563;52.416;13.548;2023-03-22T06:19:30;100670.00;;;7.92;100.00
68594;BME280;55563;52.416;13.548;2023-03-22T06:21:34;100673.72;;;7.96;100.00
68594;BME280;55563;52.416;13.548;2023-03-22T06:23:34;100677.38;;;7.95;100.00
68594;BME280;55563;52.416;13.548;2023-03-22T06:25:35;100673.56;;;8.03;100.00
68594;BME280;55563;52.416;13.548;2023-03-22T06:27:36;100666.50;;;8.03;100.00
68594;BME280;55563;52.416;13.548;2023-03-22T06:29:38;100666.56;;;8.08;100.00
68594;BME280;55563;52.416;13.548;2023-03-22T06:31:40;100674.19;;;8.10;100.00
68594;BME280;55563;52.416;13.548;2023-03-22T06:33:42;100668.16;;;8.09;100.00
68594;BME280;55563;52.416;13.548;2023-03-22T06:35:55;100679.00;;;8.18;100.00
68594;BME280;55563;52.416;13.548;2023-03-22T06:38:04;100670.13;;;8.19;100.00
68594;BME280;55563;52.416;13.548;2023-03-22T06:40:06;100675.66;;;8.22;100.00
68594;BME280;55563;52.416;13.548;2023-03-22T06:42:07;100665.75;;;8.24;100.00
68594;BME280;55563;52.416;13.548;2023-03-22T06:44:08;100676.88;;;8.31;100.00
68594;BME280;55563;52.416;13.548;2023-03-22T06:46:29;100676.88;;;8.31;100.00
68594;BME280;55563;52.416;13.548;2023-03-22T06:48:39;100679.00;;;8.35;100.00
68594;BME280;55563;52.416;13.548;2023-03-22T06:50:44;100679.84;;;8.40;100.00
68594;BME280;55563;52.416;13.548;2023-03-22T06:52:48;100681.44;;;8.41;100.00
68594;BME280;55563;52.416;13.548;2023-03-22T06:54:49;100687.25;;;8.43;100.00
68594;BME280;55563;52.416;13.548;2023-03-22T06:56:50;100687.53;;;8.47;100.00
68594;BME280;55563;52.416;13.548;2023-03-22T06:58:51;100691.50;;;8.49;100.00
68594;BME280;55563;52.416;13.548;2023-03-22T07:00:54;100687.59;;;8.52;100.00
68594;BME280;55563;52.416;13.548;2023-03-22T07:02:57;100690.53;;;8.55;100.00
68594;BME280;55563;52.416;13.548;2023-03-22T07:05:10;100683.69;;;8.54;100.00
68594;BME280;55563;52.416;13.548;2023-03-22T07:07:11;100688.53;;;8.62;100.00
68594;BME280;55563;52.416;13.548;2023-03-22T07:09:12;100685.13;;;8.62;100.00
68594;BME280;55563;52.416;13.548;2023-03-22T07:11:13;100678.59;;;8.64;100.00
68594;BME280;55563;52.416;13.548;2023-03-22T07:13:16;100681.19;;;8.64;100.00
68594;BME280;55563;52.416;13.548;2023-03-22T07:15:18;100679.44;;;8.70;100.00
68594;BME280;55563;52.416;13.548;2023-03-22T07:17:30;100686.63;;;8.80;100.00
68594;BME280;55563;52.416;13.548;2023-03-22T07:19:31;100684.81;;;8.80;100.00
68594;BME280;55563;52.416;13.548;2023-03-22T07:21:36;100682.00;;;8.87;100.00
68594;BME280;55563;52.416;13.548;2023-03-22T07:23:40;100676.06;;;8.96;100.00
68594;BME280;55563;52.416;13.548;2023-03-22T07:25:46;100680.38;;;9.07;100.00
68594;BME280;55563;52.416;13.548;2023-03-22T07:27:56;100667.56;;;9.11;100.00
68594;BME280;55563;52.416;13.548;2023-03-22T07:29:57;100668.94;;;9.18;100.00
68594;BME280;55563;52.416;13.548;2023-03-22T07:31:58;100673.63;;;9.16;100.00
68594;BME280;55563;52.416;13.548;2023-03-22T07:34:04;100674.06;;;9.30;100.00
68594;BME280;55563;52.416;13.548;2023-03-22T07:36:12;100666.72;;;9.32;100.00
68594;BME280;55563;52.416;13.548;2023-03-22T07:38:13;100662.88;;;9.40;100.00
68594;BME280;55563;52.416;13.548;2023-03-22T07:40:14;100664.78;;;9.54;100.00
68594;BME280;55563;52.416;13.548;2023-03-22T07:42:15;100657.44;;;9.51;100.00
68594;BME280;55563;52.416;13.548;2023-03-22T07:44:25;100662.69;;;9.51;100.00
68594;BME280;55563;52.416;13.548;2023-03-22T07:46:46;100670.34;;;9.58;100.00
68594;BME280;55563;52.416;13.548;2023-03-22T07:48:55;100657.28;;;9.63;100.00
68594;BME280;55563;52.416;13.548;2023-03-22T07:51:15;100650.47;;;9.67;100.00
68594;BME280;55563;52.416;13.548;2023-03-22T07:53:16;100644.75;;;9.75;100.00
68594;BME280;55563;52.416;13.548;2023-03-22T07:55:17;100644.28;;;9.78;100.00
68594;BME280;55563;52.416;13.548;2023-03-22T07:57:18;100649.00;;;9.81;100.00
68594;BME280;55563;52.416;13.548;2023-03-22T07:59:28;100646.44;;;9.91;100.00
68594;BME280;55563;52.416;13.548;2023-03-22T08:01:30;100637.59;;;10.07;100.00
68594;BME280;55563;52.416;13.548;2023-03-22T08:03:45;100634.56;;;10.21;100.00
68594;BME280;55563;52.416;13.548;2023-03-22T08:06:06;100638.88;;;10.47;100.00
68594;BME280;55563;52.416;13.548;2023-03-22T08:08:09;100633.19;;;10.80;100.00
68594;BME280;55563;52.416;13.548;2023-03-22T08:10:10;100629.50;;;10.81;100.00
68594;BME280;55563;52.416;13.548;2023-03-22T08:12:12;100634.53;;;10.83;100.00
68594;BME280;55563;52.416;13.548;2023-03-22T08:14:13;100633.78;;;11.23;100.00
68594;BME280;55563;52.416;13.548;2023-03-22T08:16:14;100629.28;;;11.03;100.00
68594;BME280;55563;52.416;13.548;2023-03-22T08:18:14;100615.38;;;11.28;100.00
68594;BME280;55563;52.416;13.548;2023-03-22T08:20:17;100624.03;;;11.23;100.00
68594;BME280;55563;52.416;13.548;2023-03-22T08:22:23;100624.59;;;11.46;100.00
68594;BME280;55563;52.416;13.548;2023-03-22T08:24:45;100610.09;;;11.43;100.00
68594;BME280;55563;52.416;13.548;2023-03-22T08:26:57;100617.19;;;11.68;100.00
68594;BME280;55563;52.416;13.548;2023-03-22T08:29:06;100613.72;;;12.08;100.00
68594;BME280;55563;52.416;13.548;2023-03-22T08:31:12;100620.19;;;12.36;100.00
68594;BME280;55563;52.416;13.548;2023-03-22T08:33:13;100609.28;;;11.93;100.00
68594;BME280;55563;52.416;13.548;2023-03-22T08:35:15;100614.97;;;12.26;100.00
68594;BME280;55563;52.416;13.548;2023-03-22T08:37:16;100608.63;;;12.32;100.00
68594;BME280;55563;52.416;13.548;2023-03-22T08:39:20;100606.19;;;12.45;100.00
68594;BME280;55563;52.416;13.548;2023-03-22T08:41:29;100604.00;;;12.57;100.00
68594;BME280;55563;52.416;13.548;2023-03-22T08:43:30;100599.50;;;12.63;100.00
68594;BME280;55563;52.416;13.548;2023-03-22T08:45:31;100591.09;;;12.61;100.00
68594;BME280;55563;52.416;13.548;2023-03-22T08:47:40;100590.97;;;12.76;100.00
68594;BME280;55563;52.416;13.548;2023-03-22T08:49:42;100583.72;;;12.58;100.00
68594;BME280;55563;52.416;13.548;2023-03-22T08:51:50;100592.41;;;12.58;100.00
68594;BME280;55563;52.416;13.548;2023-03-22T08:54:05;100592.97;;;12.55;100.00
68594;BME280;55563;52.416;13.548;2023-03-22T08:56:25;100593.03;;;12.40;100.00
68594;BME280;55563;52.416;13.548;2023-03-22T08:58:37;100580.22;;;12.67;100.00
68594;BME280;55563;52.416;13.548;2023-03-22T09:00:53;100588.34;;;12.76;100.00
68594;BME280;55563;52.416;13.548;2023-03-22T09:02:59;100584.88;;;12.81;100.00
68594;BME280;55563;52.416;13.548;2023-03-22T09:05:00;100577.72;;;12.86;100.00
68594;BME280;55563;52.416;13.548;2023-03-22T09:07:01;100578.41;;;13.02;100.00
68594;BME280;55563;52.416;13.548;2023-03-22T09:09:02;100577.22;;;12.84;100.00
68594;BME280;55563;52.416;13.548;2023-03-22T09:11:03;100566.00;;;13.02;100.00
68594;BME280;55563;52.416;13.548;2023-03-22T09:13:07;100567.06;;;13.01;100.00
68594;BME280;55563;52.416;13.548;2023-03-22T09:15:09;100554.81;;;13.21;100.00
68594;BME280;55563;52.416;13.548;2023-03-22T09:17:12;100563.72;;;13.25;100.00
68594;BME280;55563;52.416;13.548;2023-03-22T09:19:14;100545.03;;;13.50;100.00
68594;BME280;55563;52.416;13.548;2023-03-22T09:21:14;100538.84;;;13.83;100.00
68594;BME280;55563;52.416;13.548;2023-03-22T09:23:26;100541.00;;;14.24;100.00
68594;BME280;55563;52.416;13.548;2023-03-22T09:25:28;100541.28;;;14.22;100.00
68594;BME280;55563;52.416;13.548;2023-03-22T09:27:31;100545.88;;;14.35;100.00
68594;BME280;55563;52.416;13.548;2023-03-22T09:29:32;100544.00;;;14.17;100.00
68594;BME280;55563;52.416;13.548;2023-03-22T09:31:37;100544.53;;;13.95;100.00
68594;BME280;55563;52.416;13.548;2023-03-22T09:33:57;100542.13;;;13.99;100.00
68594;BME280;55563;52.416;13.548;2023-03-22T09:35:58;100542.94;;;14.18;100.00
68594;BME280;55563;52.416;13.548;2023-03-22T09:37:59;100536.91;;;14.13;100.00
68594;BME280;55563;52.416;13.548;2023-03-22T09:40:00;100534.16;;;14.23;100.00
68594;BME280;55563;52.416;13.548;2023-03-22T09:42:03;100535.53;;;14.39;100.00
68594;BME280;55563;52.416;13.548;2023-03-22T09:44:12;100538.38;;;14.80;100.00
68594;BME280;55563;52.416;13.548;2023-03-22T09:46:19;100540.13;;;14.71;100.00
68594;BME280;55563;52.416;13.548;2023-03-22T09:48:28;100541.91;;;14.75;100.00
68594;BME280;55563;52.416;13.548;2023-03-22T09:50:31;100537.44;;;15.22;100.00
68594;BME280;55563;52.416;13.548;2023-03-22T09:52:32;100538.09;;;14.63;100.00
68594;BME280;55563;52.416;13.548;2023-03-22T09:54:35;100536.53;;;14.80;100.00
68594;BME280;55563;52.416;13.548;2023-03-22T09:56:37;100537.09;;;14.77;100.00
68594;BME280;55563;52.416;13.548;2023-03-22T10:05:42;100543.41;;;14.81;100.00
68594;BME280;55563;52.416;13.548;2023-03-22T10:08:16;100537.50;;;14.28;100.00
68594;BME280;55563;52.416;13.548;2023-03-22T10:10:22;100539.22;;;14.94;100.00
68594;BME280;55563;52.416;13.548;2023-03-22T10:14:39;100538.63;;;14.97;100.00
68594;BME280;55563;52.416;13.548;2023-03-22T10:16:41;100538.09;;;15.14;100.00
68594;BME280;55563;52.416;13.548;2023-03-22T10:18:44;100531.28;;;15.40;100.00
68594;BME280;55563;52.416;13.548;2023-03-22T10:21:06;100528.69;;;15.21;100.00
68594;BME280;55563;52.416;13.548;2023-03-22T10:23:13;100521.72;;;15.12;100.00
68594;BME280;55563;52.416;13.548;2023-03-22T10:25:30;100521.31;;;15.05;100.00
68594;BME280;55563;52.416;13.548;2023-03-22T10:27:33;100514.97;;;15.19;100.00
68594;BME280;55563;52.416;13.548;2023-03-22T10:29:38;100509.69;;;15.33;100.00
68594;BME280;55563;52.416;13.548;2023-03-22T10:31:42;100512.72;;;15.40;100.00
68594;BME280;55563;52.416;13.548;2023-03-22T10:36:00;100508.28;;;15.68;100.00
68594;BME280;55563;52.416;13.548;2023-03-22T10:38:04;100500.13;;;15.64;100.00
68594;BME280;55563;52.416;13.548;2023-03-22T10:40:14;100496.66;;;15.50;100.00
68594;BME280;55563;52.416;13.548;2023-03-22T10:42:22;100490.91;;;15.62;100.00
68594;BME280;55563;52.416;13.548;2023-03-22T10:44:25;100492.78;;;15.61;100.00
68594;BME280;55563;52.416;13.548;2023-03-22T10:46:32;100483.75;;;15.62;100.00
68594;BME280;55563;52.416;13.548;2023-03-22T10:48:38;100501.41;;;15.53;100.00
68594;BME280;55563;52.416;13.548;2023-03-22T10:50:43;100495.13;;;15.63;100.00
68594;BME280;55563;52.416;13.548;2023-03-22T10:53:07;100488.91;;;15.95;100.00
68594;BME280;55563;52.416;13.548;2023-03-22T10:55:12;100473.72;;;15.59;100.00
68594;BME280;55563;52.416;13.548;2023-03-22T10:57:13;100480.09;;;15.86;100.00
68594;BME280;55563;52.416;13.548;2023-03-22T10:59:43;100471.47;;;15.66;100.00
68594;BME280;55563;52.416;13.548;2023-03-22T11:01:43;100471.19;;;15.68;100.00
68594;BME280;55563;52.416;13.548;2023-03-22T11:03:50;100474.13;;;15.66;100.00
68594;BME280;55563;52.416;13.548;2023-03-22T11:06:05;100477.63;;;15.89;100.00
68594;BME280;55563;52.416;13.548;2023-03-22T11:08:06;100481.31;;;16.02;100.00
68594;BME280;55563;52.416;13.548;2023-03-22T11:12:16;100465.09;;;15.81;100.00
68594;BME280;55563;52.416;13.548;2023-03-22T11:14:41;100472.94;;;15.73;100.00
68594;BME280;55563;52.416;13.548;2023-03-22T11:16:58;100468.03;;;15.80;100.00
68594;BME280;55563;52.416;13.548;2023-03-22T11:19:00;100464.28;;;15.81;100.00
68594;BME280;55563;52.416;13.548;2023-03-22T11:21:06;100461.41;;;16.04;100.00
68594;BME280;55563;52.416;13.548;2023-03-22T11:23:11;100463.25;;;15.68;100.00
68594;BME280;55563;52.416;13.548;2023-03-22T11:25:25;100454.28;;;15.64;100.00